sensor_id;sensor_type;location;lat;lon;timestamp;P1;durP1;ratioP1;P2;durP2;ratioP2
46721;SDS011;32455;43.430;23.136;2023-04-24T00:00:30;7.45;;;5.97;;
46721;SDS011;32455;43.430;23.136;2023-04-24T00:03:16;7.53;;;6.20;;
46721;SDS011;32455;43.430;23.136;2023-04-24T00:06:02;11.35;;;6.25;;
46721;SDS011;32455;43.430;23.136;2023-04-24T00:08:47;7.80;;;6.40;;
46721;SDS011;32455;43.430;23.136;2023-04-24T00:11:33;9.63;;;6.25;;
46721;SDS011;32455;43.430;23.136;2023-04-24T00:14:18;8.82;;;6.75;;
46721;SDS011;32455;43.430;23.136;2023-04-24T00:17:03;11.73;;;6.72;;
46721;SDS011;32455;43.430;23.136;2023-04-24T00:19:49;11.30;;;7.03;;
46721;SDS011;32455;43.430;23.136;2023-04-24T00:22:43;16.60;;;6.78;;
46721;SDS011;32455;43.430;23.136;2023-04-24T00:25:28;7.82;;;6.40;;
46721;SDS011;32455;43.430;23.136;2023-04-24T00:28:12;7.35;;;5.97;;
46721;SDS011;32455;43.430;23.136;2023-04-24T00:30:58;7.40;;;6.32;;
46721;SDS011;32455;43.430;23.136;2023-04-24T00:33:43;10.90;;;6.63;;
46721;SDS011;32455;43.430;23.136;2023-04-24T00:36:29;7.32;;;6.53;;
46721;SDS011;32455;43.430;23.136;2023-04-24T00:39:15;7.90;;;6.68;;
46721;SDS011;32455;43.430;23.136;2023-04-24T00:42:00;9.43;;;6.40;;
46721;SDS011;32455;43.430;23.136;2023-04-24T00:44:46;9.55;;;7.10;;
46721;SDS011;32455;43.430;23.136;2023-04-24T00:47:32;8.20;;;7.10;;
46721;SDS011;32455;43.430;23.136;2023-04-24T00:50:18;9.95;;;6.60;;
46721;SDS011;32455;43.430;23.136;2023-04-24T00:53:06;10.02;;;6.82;;
46721;SDS011;32455;43.430;23.136;2023-04-24T00:55:51;10.57;;;7.35;;
46721;SDS011;32455;43.430;23.136;2023-04-24T00:58:36;12.38;;;7.32;;
46721;SDS011;32455;43.430;23.136;2023-04-24T01:01:22;8.00;;;6.80;;
46721;SDS011;32455;43.430;23.136;2023-04-24T01:04:07;7.47;;;6.30;;
46721;SDS011;32455;43.430;23.136;2023-04-24T01:06:54;7.93;;;6.15;;
46721;SDS011;32455;43.430;23.136;2023-04-24T01:09:40;13.48;;;7.05;;
46721;SDS011;32455;43.430;23.136;2023-04-24T01:12:28;7.85;;;7.05;;
46721;SDS011;32455;43.430;23.136;2023-04-24T01:15:14;10.32;;;6.85;;
46721;SDS011;32455;43.430;23.136;2023-04-24T01:18:00;9.48;;;7.03;;
46721;SDS011;32455;43.430;23.136;2023-04-24T01:20:46;7.70;;;6.57;;
46721;SDS011;32455;43.430;23.136;2023-04-24T01:23:32;10.10;;;6.53;;
46721;SDS011;32455;43.430;23.136;2023-04-24T01:26:18;9.15;;;6.35;;
46721;SDS011;32455;43.430;23.136;2023-04-24T01:29:05;8.43;;;6.65;;
46721;SDS011;32455;43.430;23.136;2023-04-24T01:31:50;12.73;;;6.60;;
46721;SDS011;32455;43.430;23.136;2023-04-24T01:34:36;8.98;;;7.25;;
46721;SDS011;32455;43.430;23.136;2023-04-24T01:37:22;8.85;;;7.03;;
46721;SDS011;32455;43.430;23.136;2023-04-24T01:40:08;8.68;;;6.50;;
46721;SDS011;32455;43.430;23.136;2023-04-24T01:42:53;11.15;;;7.03;;
46721;SDS011;32455;43.430;23.136;2023-04-24T01:45:39;12.77;;;7.30;;
46721;SDS011;32455;43.430;23.136;2023-04-24T01:48:25;9.02;;;7.65;;
46721;SDS011;32455;43.430;23.136;2023-04-24T01:51:10;10.25;;;6.55;;
46721;SDS011;32455;43.430;23.136;2023-04-24T01:53:55;11.52;;;8.25;;
46721;SDS011;32455;43.430;23.136;2023-04-24T01:56:41;8.45;;;6.82;;
46721;SDS011;32455;43.430;23.136;2023-04-24T01:59:27;10.18;;;7.20;;
46721;SDS011;32455;43.430;23.136;2023-04-24T02:02:13;9.32;;;7.15;;
46721;SDS011;32455;43.430;23.136;2023-04-24T02:04:58;10.45;;;8.00;;
46721;SDS011;32455;43.430;23.136;2023-04-24T02:07:43;10.70;;;7.80;;
46721;SDS011;32455;43.430;23.136;2023-04-24T02:10:28;12.20;;;7.82;;
46721;SDS011;32455;43.430;23.136;2023-04-24T02:13:14;8.63;;;7.70;;
46721;SDS011;32455;43.430;23.136;2023-04-24T02:15:58;9.05;;;7.55;;
46721;SDS011;32455;43.430;23.136;2023-04-24T02:18:43;9.60;;;7.25;;
46721;SDS011;32455;43.430;23.136;2023-04-24T02:21:29;8.65;;;7.47;;
46721;SDS011;32455;43.430;23.136;2023-04-24T02:24:15;10.13;;;6.97;;
46721;SDS011;32455;43.430;23.136;2023-04-24T02:27:01;9.48;;;7.90;;
46721;SDS011;32455;43.430;23.136;2023-04-24T02:29:47;11.52;;;7.07;;
46721;SDS011;32455;43.430;23.136;2023-04-24T02:32:33;7.80;;;7.03;;
46721;SDS011;32455;43.430;23.136;2023-04-24T02:35:18;8.60;;;7.13;;
46721;SDS011;32455;43.430;23.136;2023-04-24T02:38:04;11.77;;;6.82;;
46721;SDS011;32455;43.430;23.136;2023-04-24T02:40:50;9.50;;;7.18;;
46721;SDS011;32455;43.430;23.136;2023-04-24T02:43:35;8.77;;;6.65;;
46721;SDS011;32455;43.430;23.136;2023-04-24T02:46:21;9.70;;;7.07;;
46721;SDS011;32455;43.430;23.136;2023-04-24T02:49:06;11.15;;;7.28;;
46721;SDS011;32455;43.430;23.136;2023-04-24T02:51:51;8.40;;;6.50;;
46721;SDS011;32455;43.430;23.136;2023-04-24T02:54:37;8.40;;;6.43;;
46721;SDS011;32455;43.430;23.136;2023-04-24T02:57:22;11.82;;;6.80;;
46721;SDS011;32455;43.430;23.136;2023-04-24T03:00:08;9.50;;;6.38;;
46721;SDS011;32455;43.430;23.136;2023-04-24T03:02:53;7.00;;;5.78;;
46721;SDS011;32455;43.430;23.136;2023-04-24T03:05:39;12.32;;;6.68;;
46721;SDS011;32455;43.430;23.136;2023-04-24T03:08:24;8.65;;;6.45;;
46721;SDS011;32455;43.430;23.136;2023-04-24T03:11:09;9.45;;;6.25;;
46721;SDS011;32455;43.430;23.136;2023-04-24T03:13:55;9.70;;;6.40;;
46721;SDS011;32455;43.430;23.136;2023-04-24T03:16:40;7.90;;;6.00;;
46721;SDS011;32455;43.430;23.136;2023-04-24T03:19:25;7.28;;;5.90;;
46721;SDS011;32455;43.430;23.136;2023-04-24T03:22:11;8.90;;;5.88;;
46721;SDS011;32455;43.430;23.136;2023-04-24T03:24:56;6.88;;;5.55;;
46721;SDS011;32455;43.430;23.136;2023-04-24T03:27:41;8.27;;;5.35;;
46721;SDS011;32455;43.430;23.136;2023-04-24T03:30:26;6.75;;;5.13;;
46721;SDS011;32455;43.430;23.136;2023-04-24T03:33:12;8.75;;;5.65;;
46721;SDS011;32455;43.430;23.136;2023-04-24T03:35:57;9.00;;;5.63;;
46721;SDS011;32455;43.430;23.136;2023-04-24T03:38:42;6.07;;;4.78;;
46721;SDS011;32455;43.430;23.136;2023-04-24T03:41:28;9.95;;;5.60;;
46721;SDS011;32455;43.430;23.136;2023-04-24T03:44:13;6.80;;;4.90;;
46721;SDS011;32455;43.430;23.136;2023-04-24T03:46:58;7.22;;;5.60;;
46721;SDS011;32455;43.430;23.136;2023-04-24T03:49:42;6.28;;;5.68;;
46721;SDS011;32455;43.430;23.136;2023-04-24T03:52:28;6.95;;;5.35;;
46721;SDS011;32455;43.430;23.136;2023-04-24T03:55:13;9.32;;;6.40;;
46721;SDS011;32455;43.430;23.136;2023-04-24T03:57:59;9.50;;;6.60;;
46721;SDS011;32455;43.430;23.136;2023-04-24T04:00:44;8.15;;;6.07;;
46721;SDS011;32455;43.430;23.136;2023-04-24T04:03:32;9.27;;;6.32;;
46721;SDS011;32455;43.430;23.136;2023-04-24T04:06:18;8.52;;;6.10;;
46721;SDS011;32455;43.430;23.136;2023-04-24T04:09:04;10.20;;;6.25;;
46721;SDS011;32455;43.430;23.136;2023-04-24T04:11:49;11.55;;;6.75;;
46721;SDS011;32455;43.430;23.136;2023-04-24T04:14:35;7.28;;;6.28;;
46721;SDS011;32455;43.430;23.136;2023-04-24T04:17:20;10.65;;;6.93;;
46721;SDS011;32455;43.430;23.136;2023-04-24T04:20:06;9.73;;;6.63;;
46721;SDS011;32455;43.430;23.136;2023-04-24T04:22:54;14.55;;;7.68;;
46721;SDS011;32455;43.430;23.136;2023-04-24T04:25:40;11.77;;;7.38;;
46721;SDS011;32455;43.430;23.136;2023-04-24T04:28:25;12.18;;;7.10;;
46721;SDS011;32455;43.430;23.136;2023-04-24T04:31:10;12.02;;;6.78;;
46721;SDS011;32455;43.430;23.136;2023-04-24T04:33:56;11.68;;;7.53;;
46721;SDS011;32455;43.430;23.136;2023-04-24T04:36:41;9.93;;;7.30;;
46721;SDS011;32455;43.430;23.136;2023-04-24T04:39:27;9.52;;;7.80;;
46721;SDS011;32455;43.430;23.136;2023-04-24T04:42:13;9.70;;;7.25;;
46721;SDS011;32455;43.430;23.136;2023-04-24T04:44:58;11.75;;;7.32;;
46721;SDS011;32455;43.430;23.136;2023-04-24T04:47:43;10.75;;;7.63;;
46721;SDS011;32455;43.430;23.136;2023-04-24T04:50:29;7.97;;;6.47;;
46721;SDS011;32455;43.430;23.136;2023-04-24T04:53:14;7.50;;;6.75;;
46721;SDS011;32455;43.430;23.136;2023-04-24T04:55:59;7.57;;;6.05;;
46721;SDS011;32455;43.430;23.136;2023-04-24T04:58:45;10.98;;;7.68;;
46721;SDS011;32455;43.430;23.136;2023-04-24T05:01:30;10.50;;;7.00;;
46721;SDS011;32455;43.430;23.136;2023-04-24T05:04:15;8.02;;;6.60;;
46721;SDS011;32455;43.430;23.136;2023-04-24T05:07:00;7.70;;;6.70;;
46721;SDS011;32455;43.430;23.136;2023-04-24T05:09:46;13.18;;;6.85;;
46721;SDS011;32455;43.430;23.136;2023-04-24T05:12:31;8.10;;;6.63;;
46721;SDS011;32455;43.430;23.136;2023-04-24T05:15:16;9.65;;;6.72;;
46721;SDS011;32455;43.430;23.136;2023-04-24T05:18:01;9.75;;;7.20;;
46721;SDS011;32455;43.430;23.136;2023-04-24T05:20:47;10.23;;;6.40;;
46721;SDS011;32455;43.430;23.136;2023-04-24T05:23:33;12.15;;;7.03;;
46721;SDS011;32455;43.430;23.136;2023-04-24T05:26:18;8.10;;;6.72;;
46721;SDS011;32455;43.430;23.136;2023-04-24T05:29:04;8.30;;;7.15;;
46721;SDS011;32455;43.430;23.136;2023-04-24T05:31:50;13.63;;;8.48;;
46721;SDS011;32455;43.430;23.136;2023-04-24T05:34:35;10.63;;;8.13;;
46721;SDS011;32455;43.430;23.136;2023-04-24T05:37:21;10.90;;;7.75;;
46721;SDS011;32455;43.430;23.136;2023-04-24T05:40:07;9.75;;;7.63;;
46721;SDS011;32455;43.430;23.136;2023-04-24T05:42:53;9.02;;;7.00;;
46721;SDS011;32455;43.430;23.136;2023-04-24T05:45:38;10.18;;;6.85;;
46721;SDS011;32455;43.430;23.136;2023-04-24T05:48:24;8.10;;;6.90;;
46721;SDS011;32455;43.430;23.136;2023-04-24T05:51:09;9.20;;;6.60;;
46721;SDS011;32455;43.430;23.136;2023-04-24T05:53:54;7.93;;;6.38;;
46721;SDS011;32455;43.430;23.136;2023-04-24T05:56:39;7.53;;;5.90;;
46721;SDS011;32455;43.430;23.136;2023-04-24T05:59:27;14.07;;;9.73;;
46721;SDS011;32455;43.430;23.136;2023-04-24T06:02:12;10.40;;;8.93;;
46721;SDS011;32455;43.430;23.136;2023-04-24T06:04:58;12.93;;;8.73;;
46721;SDS011;32455;43.430;23.136;2023-04-24T06:07:44;11.05;;;7.30;;
46721;SDS011;32455;43.430;23.136;2023-04-24T06:10:29;10.35;;;7.07;;
46721;SDS011;32455;43.430;23.136;2023-04-24T06:13:15;11.65;;;7.65;;
46721;SDS011;32455;43.430;23.136;2023-04-24T06:16:00;14.07;;;7.50;;
46721;SDS011;32455;43.430;23.136;2023-04-24T06:18:46;8.43;;;6.55;;
46721;SDS011;32455;43.430;23.136;2023-04-24T06:21:32;7.22;;;6.53;;
46721;SDS011;32455;43.430;23.136;2023-04-24T06:24:17;10.85;;;6.88;;
46721;SDS011;32455;43.430;23.136;2023-04-24T06:27:02;9.00;;;6.60;;
46721;SDS011;32455;43.430;23.136;2023-04-24T06:29:48;7.72;;;6.93;;
46721;SDS011;32455;43.430;23.136;2023-04-24T06:32:39;9.00;;;7.15;;
46721;SDS011;32455;43.430;23.136;2023-04-24T06:35:25;7.28;;;6.47;;
46721;SDS011;32455;43.430;23.136;2023-04-24T06:38:10;11.90;;;7.30;;
46721;SDS011;32455;43.430;23.136;2023-04-24T06:40:56;8.05;;;6.10;;
46721;SDS011;32455;43.430;23.136;2023-04-24T06:43:41;7.80;;;6.28;;
46721;SDS011;32455;43.430;23.136;2023-04-24T06:46:27;6.65;;;5.95;;
46721;SDS011;32455;43.430;23.136;2023-04-24T06:49:13;9.95;;;6.18;;
46721;SDS011;32455;43.430;23.136;2023-04-24T06:52:00;9.10;;;5.95;;
46721;SDS011;32455;43.430;23.136;2023-04-24T06:54:45;7.45;;;6.75;;
46721;SDS011;32455;43.430;23.136;2023-04-24T06:57:30;7.38;;;6.47;;
46721;SDS011;32455;43.430;23.136;2023-04-24T07:00:15;9.27;;;6.60;;
46721;SDS011;32455;43.430;23.136;2023-04-24T07:03:01;8.38;;;6.60;;
46721;SDS011;32455;43.430;23.136;2023-04-24T07:05:47;7.90;;;6.65;;
46721;SDS011;32455;43.430;23.136;2023-04-24T07:08:34;7.15;;;5.97;;
46721;SDS011;32455;43.430;23.136;2023-04-24T07:11:20;8.70;;;6.35;;
46721;SDS011;32455;43.430;23.136;2023-04-24T07:14:06;7.45;;;5.88;;
46721;SDS011;32455;43.430;23.136;2023-04-24T07:16:52;9.23;;;5.88;;
46721;SDS011;32455;43.430;23.136;2023-04-24T07:19:37;7.18;;;6.05;;
46721;SDS011;32455;43.430;23.136;2023-04-24T07:22:22;8.85;;;6.60;;
46721;SDS011;32455;43.430;23.136;2023-04-24T07:25:07;6.07;;;5.47;;
46721;SDS011;32455;43.430;23.136;2023-04-24T07:27:54;6.97;;;5.53;;
46721;SDS011;32455;43.430;23.136;2023-04-24T07:30:39;5.97;;;5.45;;
46721;SDS011;32455;43.430;23.136;2023-04-24T07:33:25;8.77;;;5.82;;
46721;SDS011;32455;43.430;23.136;2023-04-24T07:36:11;9.63;;;6.32;;
46721;SDS011;32455;43.430;23.136;2023-04-24T07:39:00;7.78;;;6.50;;
46721;SDS011;32455;43.430;23.136;2023-04-24T07:41:45;8.15;;;6.43;;
46721;SDS011;32455;43.430;23.136;2023-04-24T07:44:30;8.98;;;6.20;;
46721;SDS011;32455;43.430;23.136;2023-04-24T07:47:17;9.52;;;6.53;;
46721;SDS011;32455;43.430;23.136;2023-04-24T07:50:02;7.28;;;6.57;;
46721;SDS011;32455;43.430;23.136;2023-04-24T07:52:48;8.75;;;6.80;;
46721;SDS011;32455;43.430;23.136;2023-04-24T07:55:34;8.65;;;6.50;;
46721;SDS011;32455;43.430;23.136;2023-04-24T07:58:19;10.20;;;5.90;;
46721;SDS011;32455;43.430;23.136;2023-04-24T08:01:05;9.32;;;6.18;;
46721;SDS011;32455;43.430;23.136;2023-04-24T08:03:51;6.90;;;5.45;;
46721;SDS011;32455;43.430;23.136;2023-04-24T08:06:36;8.15;;;6.40;;
46721;SDS011;32455;43.430;23.136;2023-04-24T08:09:21;8.07;;;6.32;;
46721;SDS011;32455;43.430;23.136;2023-04-24T08:12:07;9.70;;;6.03;;
46721;SDS011;32455;43.430;23.136;2023-04-24T08:14:52;7.65;;;6.13;;
46721;SDS011;32455;43.430;23.136;2023-04-24T08:17:37;10.23;;;6.88;;
46721;SDS011;32455;43.430;23.136;2023-04-24T08:20:23;8.40;;;6.10;;
46721;SDS011;32455;43.430;23.136;2023-04-24T08:23:08;6.93;;;5.55;;
46721;SDS011;32455;43.430;23.136;2023-04-24T08:25:54;9.10;;;6.28;;
46721;SDS011;32455;43.430;23.136;2023-04-24T08:28:39;8.65;;;5.63;;
46721;SDS011;32455;43.430;23.136;2023-04-24T08:31:24;8.45;;;5.72;;
46721;SDS011;32455;43.430;23.136;2023-04-24T08:34:10;7.82;;;5.47;;
46721;SDS011;32455;43.430;23.136;2023-04-24T08:36:56;5.68;;;5.18;;
46721;SDS011;32455;43.430;23.136;2023-04-24T08:39:41;8.88;;;5.75;;
46721;SDS011;32455;43.430;23.136;2023-04-24T08:42:27;7.88;;;5.13;;
46721;SDS011;32455;43.430;23.136;2023-04-24T08:45:13;7.75;;;5.57;;
46721;SDS011;32455;43.430;23.136;2023-04-24T08:47:59;8.15;;;6.13;;
46721;SDS011;32455;43.430;23.136;2023-04-24T08:50:44;7.65;;;6.65;;
46721;SDS011;32455;43.430;23.136;2023-04-24T08:53:30;6.53;;;5.32;;
46721;SDS011;32455;43.430;23.136;2023-04-24T08:56:18;9.73;;;6.47;;
46721;SDS011;32455;43.430;23.136;2023-04-24T08:59:04;7.95;;;6.00;;
46721;SDS011;32455;43.430;23.136;2023-04-24T09:01:50;8.85;;;5.97;;
46721;SDS011;32455;43.430;23.136;2023-04-24T09:04:37;9.23;;;6.38;;
46721;SDS011;32455;43.430;23.136;2023-04-24T09:07:24;6.75;;;5.78;;
46721;SDS011;32455;43.430;23.136;2023-04-24T09:10:12;8.05;;;6.18;;
46721;SDS011;32455;43.430;23.136;2023-04-24T09:12:58;9.38;;;5.78;;
46721;SDS011;32455;43.430;23.136;2023-04-24T09:15:46;6.65;;;5.97;;
46721;SDS011;32455;43.430;23.136;2023-04-24T09:18:32;11.10;;;5.82;;
46721;SDS011;32455;43.430;23.136;2023-04-24T09:21:22;9.35;;;6.13;;
46721;SDS011;32455;43.430;23.136;2023-04-24T09:24:08;9.10;;;5.80;;
46721;SDS011;32455;43.430;23.136;2023-04-24T09:27:04;9.20;;;6.10;;
46721;SDS011;32455;43.430;23.136;2023-04-24T09:29:56;11.88;;;6.38;;
46721;SDS011;32455;43.430;23.136;2023-04-24T09:32:42;8.65;;;5.63;;
46721;SDS011;32455;43.430;23.136;2023-04-24T09:35:27;13.23;;;6.47;;
46721;SDS011;32455;43.430;23.136;2023-04-24T09:38:13;6.50;;;5.57;;
46721;SDS011;32455;43.430;23.136;2023-04-24T09:41:02;10.45;;;5.95;;
46721;SDS011;32455;43.430;23.136;2023-04-24T09:43:49;8.45;;;6.07;;
46721;SDS011;32455;43.430;23.136;2023-04-24T09:46:34;9.27;;;6.13;;
46721;SDS011;32455;43.430;23.136;2023-04-24T09:49:23;7.15;;;4.90;;
46721;SDS011;32455;43.430;23.136;2023-04-24T09:52:10;7.00;;;5.28;;
46721;SDS011;32455;43.430;23.136;2023-04-24T09:54:56;10.57;;;5.78;;
46721;SDS011;32455;43.430;23.136;2023-04-24T09:57:46;7.20;;;5.13;;
46721;SDS011;32455;43.430;23.136;2023-04-24T10:00:35;5.75;;;4.93;;
46721;SDS011;32455;43.430;23.136;2023-04-24T10:03:23;8.20;;;4.93;;
46721;SDS011;32455;43.430;23.136;2023-04-24T10:06:11;5.68;;;5.05;;
46721;SDS011;32455;43.430;23.136;2023-04-24T10:08:57;6.07;;;4.32;;
46721;SDS011;32455;43.430;23.136;2023-04-24T10:11:43;9.10;;;4.93;;
46721;SDS011;32455;43.430;23.136;2023-04-24T10:14:31;7.22;;;4.97;;
46721;SDS011;32455;43.430;23.136;2023-04-24T10:17:16;5.45;;;4.60;;
46721;SDS011;32455;43.430;23.136;2023-04-24T10:20:02;8.07;;;5.78;;
46721;SDS011;32455;43.430;23.136;2023-04-24T10:22:52;8.23;;;5.80;;
46721;SDS011;32455;43.430;23.136;2023-04-24T10:25:38;7.60;;;5.30;;
46721;SDS011;32455;43.430;23.136;2023-04-24T10:28:24;5.68;;;5.10;;
46721;SDS011;32455;43.430;23.136;2023-04-24T10:31:10;6.35;;;5.15;;
46721;SDS011;32455;43.430;23.136;2023-04-24T10:33:56;7.80;;;5.18;;
46721;SDS011;32455;43.430;23.136;2023-04-24T10:36:46;7.47;;;5.20;;
46721;SDS011;32455;43.430;23.136;2023-04-24T10:39:34;12.18;;;5.40;;
46721;SDS011;32455;43.430;23.136;2023-04-24T10:42:22;7.82;;;5.50;;
46721;SDS011;32455;43.430;23.136;2023-04-24T10:45:15;7.10;;;5.35;;
46721;SDS011;32455;43.430;23.136;2023-04-24T10:48:08;7.28;;;5.28;;
46721;SDS011;32455;43.430;23.136;2023-04-24T10:50:58;7.47;;;5.38;;
46721;SDS011;32455;43.430;23.136;2023-04-24T10:53:43;8.00;;;5.40;;
46721;SDS011;32455;43.430;23.136;2023-04-24T10:56:29;8.32;;;5.20;;
46721;SDS011;32455;43.430;23.136;2023-04-24T10:59:23;7.50;;;5.47;;
46721;SDS011;32455;43.430;23.136;2023-04-24T11:02:15;10.77;;;5.30;;
46721;SDS011;32455;43.430;23.136;2023-04-24T11:05:02;5.45;;;4.95;;
46721;SDS011;32455;43.430;23.136;2023-04-24T11:11:00;7.88;;;5.85;;
46721;SDS011;32455;43.430;23.136;2023-04-24T11:16:44;10.65;;;6.20;;
46721;SDS011;32455;43.430;23.136;2023-04-24T11:19:36;10.85;;;6.85;;
46721;SDS011;32455;43.430;23.136;2023-04-24T11:22:22;11.18;;;6.88;;
46721;SDS011;32455;43.430;23.136;2023-04-24T11:25:08;7.60;;;6.78;;
46721;SDS011;32455;43.430;23.136;2023-04-24T11:28:05;13.27;;;7.25;;
46721;SDS011;32455;43.430;23.136;2023-04-24T11:30:51;8.30;;;7.15;;
46721;SDS011;32455;43.430;23.136;2023-04-24T11:33:38;9.25;;;8.35;;
46721;SDS011;32455;43.430;23.136;2023-04-24T11:36:24;9.65;;;7.40;;
46721;SDS011;32455;43.430;23.136;2023-04-24T11:39:09;10.68;;;7.28;;
46721;SDS011;32455;43.430;23.136;2023-04-24T11:42:01;9.85;;;7.63;;
46721;SDS011;32455;43.430;23.136;2023-04-24T11:44:54;10.00;;;8.18;;
46721;SDS011;32455;43.430;23.136;2023-04-24T11:47:41;12.45;;;9.23;;
46721;SDS011;32455;43.430;23.136;2023-04-24T11:50:27;9.90;;;8.20;;
46721;SDS011;32455;43.430;23.136;2023-04-24T11:53:13;7.88;;;7.05;;
46721;SDS011;32455;43.430;23.136;2023-04-24T11:56:02;13.40;;;9.00;;
46721;SDS011;32455;43.430;23.136;2023-04-24T11:58:48;12.90;;;7.78;;
46721;SDS011;32455;43.430;23.136;2023-04-24T12:01:42;10.65;;;8.15;;
46721;SDS011;32455;43.430;23.136;2023-04-24T12:04:37;9.55;;;7.50;;
46721;SDS011;32455;43.430;23.136;2023-04-24T12:07:26;10.80;;;8.50;;
46721;SDS011;32455;43.430;23.136;2023-04-24T12:10:11;19.75;;;17.52;;
46721;SDS011;32455;43.430;23.136;2023-04-24T12:12:57;12.23;;;9.10;;
46721;SDS011;32455;43.430;23.136;2023-04-24T12:15:42;13.73;;;8.60;;
46721;SDS011;32455;43.430;23.136;2023-04-24T12:18:28;9.13;;;7.70;;
46721;SDS011;32455;43.430;23.136;2023-04-24T12:21:19;11.55;;;7.70;;
46721;SDS011;32455;43.430;23.136;2023-04-24T12:24:06;8.55;;;7.25;;
46721;SDS011;32455;43.430;23.136;2023-04-24T12:26:51;10.20;;;7.60;;
46721;SDS011;32455;43.430;23.136;2023-04-24T12:29:50;10.23;;;7.50;;
46721;SDS011;32455;43.430;23.136;2023-04-24T12:32:40;8.32;;;6.25;;
46721;SDS011;32455;43.430;23.136;2023-04-24T12:35:30;15.45;;;7.20;;
46721;SDS011;32455;43.430;23.136;2023-04-24T12:38:21;10.77;;;7.47;;
46721;SDS011;32455;43.430;23.136;2023-04-24T12:41:11;8.57;;;7.55;;
46721;SDS011;32455;43.430;23.136;2023-04-24T12:43:57;9.55;;;7.28;;
46721;SDS011;32455;43.430;23.136;2023-04-24T12:46:43;9.02;;;8.02;;
46721;SDS011;32455;43.430;23.136;2023-04-24T12:49:31;9.63;;;7.60;;
46721;SDS011;32455;43.430;23.136;2023-04-24T12:52:16;8.85;;;7.55;;
46721;SDS011;32455;43.430;23.136;2023-04-24T12:55:02;14.00;;;7.38;;
46721;SDS011;32455;43.430;23.136;2023-04-24T12:57:49;7.15;;;6.40;;
46721;SDS011;32455;43.430;23.136;2023-04-24T13:00:35;6.97;;;5.63;;
46721;SDS011;32455;43.430;23.136;2023-04-24T13:03:20;8.80;;;6.40;;
46721;SDS011;32455;43.430;23.136;2023-04-24T13:06:07;5.50;;;4.82;;
46721;SDS011;32455;43.430;23.136;2023-04-24T13:08:52;5.78;;;5.20;;
46721;SDS011;32455;43.430;23.136;2023-04-24T13:11:39;6.68;;;5.78;;
46721;SDS011;32455;43.430;23.136;2023-04-24T13:14:24;5.82;;;5.18;;
46721;SDS011;32455;43.430;23.136;2023-04-24T13:17:09;7.32;;;5.38;;
46721;SDS011;32455;43.430;23.136;2023-04-24T13:19:56;6.75;;;5.30;;
46721;SDS011;32455;43.430;23.136;2023-04-24T13:22:42;7.40;;;5.90;;
46721;SDS011;32455;43.430;23.136;2023-04-24T13:25:27;10.05;;;5.93;;
46721;SDS011;32455;43.430;23.136;2023-04-24T13:28:12;7.80;;;5.20;;
46721;SDS011;32455;43.430;23.136;2023-04-24T13:30:58;7.32;;;4.97;;
46721;SDS011;32455;43.430;23.136;2023-04-24T13:33:43;7.28;;;5.03;;
46721;SDS011;32455;43.430;23.136;2023-04-24T13:36:28;6.03;;;5.43;;
46721;SDS011;32455;43.430;23.136;2023-04-24T13:39:15;8.95;;;5.80;;
46721;SDS011;32455;43.430;23.136;2023-04-24T13:42:00;11.70;;;7.75;;
46721;SDS011;32455;43.430;23.136;2023-04-24T13:44:46;11.65;;;7.57;;
46721;SDS011;32455;43.430;23.136;2023-04-24T13:47:31;11.90;;;6.72;;
46721;SDS011;32455;43.430;23.136;2023-04-24T13:50:17;10.93;;;4.88;;
46721;SDS011;32455;43.430;23.136;2023-04-24T13:53:02;11.10;;;6.53;;
46721;SDS011;32455;43.430;23.136;2023-04-24T13:55:49;12.68;;;7.82;;
46721;SDS011;32455;43.430;23.136;2023-04-24T13:58:34;6.53;;;4.55;;
46721;SDS011;32455;43.430;23.136;2023-04-24T14:01:23;11.35;;;6.00;;
46721;SDS011;32455;43.430;23.136;2023-04-24T14:04:11;26.40;;;13.27;;
46721;SDS011;32455;43.430;23.136;2023-04-24T14:06:56;24.35;;;11.73;;
46721;SDS011;32455;43.430;23.136;2023-04-24T14:09:41;13.65;;;6.63;;
46721;SDS011;32455;43.430;23.136;2023-04-24T14:12:27;8.30;;;4.47;;
46721;SDS011;32455;43.430;23.136;2023-04-24T14:15:12;7.25;;;4.45;;
46721;SDS011;32455;43.430;23.136;2023-04-24T14:17:58;4.57;;;3.88;;
46721;SDS011;32455;43.430;23.136;2023-04-24T14:20:44;7.63;;;4.40;;
46721;SDS011;32455;43.430;23.136;2023-04-24T14:23:30;13.38;;;6.13;;
46721;SDS011;32455;43.430;23.136;2023-04-24T14:26:15;8.98;;;5.07;;
46721;SDS011;32455;43.430;23.136;2023-04-24T14:29:01;12.88;;;7.13;;
46721;SDS011;32455;43.430;23.136;2023-04-24T14:31:45;9.32;;;6.72;;
46721;SDS011;32455;43.430;23.136;2023-04-24T14:34:31;8.73;;;4.82;;
46721;SDS011;32455;43.430;23.136;2023-04-24T14:37:16;5.15;;;4.55;;
46721;SDS011;32455;43.430;23.136;2023-04-24T14:40:02;11.05;;;5.43;;
46721;SDS011;32455;43.430;23.136;2023-04-24T14:42:50;8.45;;;4.75;;
46721;SDS011;32455;43.430;23.136;2023-04-24T14:45:36;6.75;;;5.13;;
46721;SDS011;32455;43.430;23.136;2023-04-24T14:48:23;6.43;;;4.28;;
46721;SDS011;32455;43.430;23.136;2023-04-24T14:51:09;6.88;;;5.25;;
46721;SDS011;32455;43.430;23.136;2023-04-24T14:53:55;7.38;;;4.38;;
46721;SDS011;32455;43.430;23.136;2023-04-24T14:56:41;6.60;;;4.80;;
46721;SDS011;32455;43.430;23.136;2023-04-24T14:59:28;11.20;;;6.47;;
46721;SDS011;32455;43.430;23.136;2023-04-24T15:02:14;15.75;;;7.78;;
46721;SDS011;32455;43.430;23.136;2023-04-24T15:04:59;18.90;;;8.35;;
46721;SDS011;32455;43.430;23.136;2023-04-24T15:07:44;16.27;;;8.30;;
46721;SDS011;32455;43.430;23.136;2023-04-24T15:10:30;19.08;;;8.27;;
46721;SDS011;32455;43.430;23.136;2023-04-24T15:13:15;25.55;;;10.45;;
46721;SDS011;32455;43.430;23.136;2023-04-24T15:16:01;24.33;;;11.68;;
46721;SDS011;32455;43.430;23.136;2023-04-24T15:18:47;11.77;;;7.80;;
46721;SDS011;32455;43.430;23.136;2023-04-24T15:21:32;10.00;;;6.82;;
46721;SDS011;32455;43.430;23.136;2023-04-24T15:24:18;13.45;;;8.15;;
46721;SDS011;32455;43.430;23.136;2023-04-24T15:27:02;11.55;;;7.72;;
46721;SDS011;32455;43.430;23.136;2023-04-24T15:29:48;18.63;;;9.48;;
46721;SDS011;32455;43.430;23.136;2023-04-24T15:32:33;11.70;;;9.75;;
46721;SDS011;32455;43.430;23.136;2023-04-24T15:35:19;13.65;;;9.52;;
46721;SDS011;32455;43.430;23.136;2023-04-24T15:38:04;10.55;;;8.77;;
46721;SDS011;32455;43.430;23.136;2023-04-24T15:40:49;12.52;;;9.88;;
46721;SDS011;32455;43.430;23.136;2023-04-24T15:43:34;10.57;;;9.48;;
46721;SDS011;32455;43.430;23.136;2023-04-24T15:46:20;13.48;;;10.60;;
46721;SDS011;32455;43.430;23.136;2023-04-24T15:49:06;10.45;;;9.30;;
46721;SDS011;32455;43.430;23.136;2023-04-24T15:51:51;14.52;;;9.80;;
46721;SDS011;32455;43.430;23.136;2023-04-24T15:54:36;11.77;;;10.63;;
46721;SDS011;32455;43.430;23.136;2023-04-24T15:57:23;11.93;;;10.73;;
46721;SDS011;32455;43.430;23.136;2023-04-24T16:00:08;12.68;;;11.20;;
46721;SDS011;32455;43.430;23.136;2023-04-24T16:02:54;14.00;;;10.25;;
46721;SDS011;32455;43.430;23.136;2023-04-24T16:05:39;12.68;;;11.38;;
46721;SDS011;32455;43.430;23.136;2023-04-24T16:08:24;14.75;;;12.15;;
46721;SDS011;32455;43.430;23.136;2023-04-24T16:11:09;15.07;;;11.80;;
46721;SDS011;32455;43.430;23.136;2023-04-24T16:13:54;13.02;;;10.48;;
46721;SDS011;32455;43.430;23.136;2023-04-24T16:16:40;10.85;;;9.77;;
46721;SDS011;32455;43.430;23.136;2023-04-24T16:19:25;11.88;;;9.63;;
46721;SDS011;32455;43.430;23.136;2023-04-24T16:22:11;14.07;;;9.55;;
46721;SDS011;32455;43.430;23.136;2023-04-24T16:24:56;11.93;;;9.18;;